sensor_id;sensor_type;location;lat;lon;timestamp;temperature;humidity
66184;DHT22;52989;48.796;9.806;2023-03-13T00:01:34;7.40;99.90
66184;DHT22;52989;48.796;9.806;2023-03-13T00:04:00;7.30;99.90
66184;DHT22;52989;48.796;9.806;2023-03-13T00:06:26;7.30;99.90
66184;DHT22;52989;48.796;9.806;2023-03-13T00:08:53;7.30;99.90
66184;DHT22;52989;48.796;9.806;2023-03-13T00:11:19;7.50;99.90
66184;DHT22;52989;48.796;9.806;2023-03-13T00:13:44;7.50;99.90
66184;DHT22;52989;48.796;9.806;2023-03-13T00:16:11;7.50;99.90
66184;DHT22;52989;48.796;9.806;2023-03-13T00:18:37;7.40;99.90
66184;DHT22;52989;48.796;9.806;2023-03-13T00:21:03;7.40;99.90
66184;DHT22;52989;48.796;9.806;2023-03-13T00:23:29;7.40;99.90
66184;DHT22;52989;48.796;9.806;2023-03-13T00:25:56;7.50;99.90
66184;DHT22;52989;48.796;9.806;2023-03-13T00:28:21;8.00;99.90
66184;DHT22;52989;48.796;9.806;2023-03-13T00:30:47;7.70;99.90
66184;DHT22;52989;48.796;9.806;2023-03-13T00:33:12;7.40;99.90
66184;DHT22;52989;48.796;9.806;2023-03-13T00:35:38;7.30;99.90
66184;DHT22;52989;48.796;9.806;2023-03-13T00:38:03;7.40;99.90
66184;DHT22;52989;48.796;9.806;2023-03-13T00:40:29;7.30;99.90
66184;DHT22;52989;48.796;9.806;2023-03-13T00:42:54;7.40;99.90
66184;DHT22;52989;48.796;9.806;2023-03-13T00:45:19;7.30;99.90
66184;DHT22;52989;48.796;9.806;2023-03-13T00:47:45;7.20;99.90
66184;DHT22;52989;48.796;9.806;2023-03-13T00:50:10;7.10;99.90
66184;DHT22;52989;48.796;9.806;2023-03-13T00:52:36;7.40;99.90
66184;DHT22;52989;48.796;9.806;2023-03-13T00:55:01;7.20;99.90
66184;DHT22;52989;48.796;9.806;2023-03-13T00:57:28;7.20;99.90
66184;DHT22;52989;48.796;9.806;2023-03-13T00:59:53;7.40;99.90
66184;DHT22;52989;48.796;9.806;2023-03-13T01:02:19;7.10;99.90
66184;DHT22;52989;48.796;9.806;2023-03-13T01:04:44;7.00;99.90
66184;DHT22;52989;48.796;9.806;2023-03-13T01:07:10;7.00;99.90
66184;DHT22;52989;48.796;9.806;2023-03-13T01:09:35;7.00;99.90
66184;DHT22;52989;48.796;9.806;2023-03-13T01:12:01;6.90;99.90
66184;DHT22;52989;48.796;9.806;2023-03-13T01:14:26;6.80;99.90
66184;DHT22;52989;48.796;9.806;2023-03-13T01:16:52;6.80;99.90
66184;DHT22;52989;48.796;9.806;2023-03-13T01:19:18;6.80;99.90
66184;DHT22;52989;48.796;9.806;2023-03-13T01:21:44;6.80;99.90
66184;DHT22;52989;48.796;9.806;2023-03-13T01:24:10;6.80;99.90
66184;DHT22;52989;48.796;9.806;2023-03-13T01:26:36;6.90;99.90
66184;DHT22;52989;48.796;9.806;2023-03-13T01:29:01;6.90;99.90
66184;DHT22;52989;48.796;9.806;2023-03-13T01:31:27;7.00;99.90
66184;DHT22;52989;48.796;9.806;2023-03-13T01:33:55;6.90;99.90
66184;DHT22;52989;48.796;9.806;2023-03-13T01:36:21;6.90;99.90
66184;DHT22;52989;48.796;9.806;2023-03-13T01:38:47;6.70;99.90
66184;DHT22;52989;48.796;9.806;2023-03-13T01:41:13;6.90;99.90
66184;DHT22;52989;48.796;9.806;2023-03-13T01:43:38;7.00;99.90
66184;DHT22;52989;48.796;9.806;2023-03-13T01:48:51;7.00;99.90
66184;DHT22;52989;48.796;9.806;2023-03-13T01:51:17;7.10;99.90
66184;DHT22;52989;48.796;9.806;2023-03-13T01:53:45;7.20;99.90
66184;DHT22;52989;48.796;9.806;2023-03-13T01:56:19;7.30;99.90
66184;DHT22;52989;48.796;9.806;2023-03-13T01:58:47;7.20;99.90
66184;DHT22;52989;48.796;9.806;2023-03-13T02:01:13;7.10;99.90
66184;DHT22;52989;48.796;9.806;2023-03-13T02:03:39;7.00;99.90
66184;DHT22;52989;48.796;9.806;2023-03-13T02:06:05;6.90;99.90
66184;DHT22;52989;48.796;9.806;2023-03-13T02:08:32;6.90;99.90
66184;DHT22;52989;48.796;9.806;2023-03-13T02:13:30;7.10;99.90
66184;DHT22;52989;48.796;9.806;2023-03-13T02:15:56;7.00;99.90
66184;DHT22;52989;48.796;9.806;2023-03-13T02:18:21;6.80;99.90
66184;DHT22;52989;48.796;9.806;2023-03-13T02:20:47;6.60;99.90
66184;DHT22;52989;48.796;9.806;2023-03-13T02:23:24;6.60;99.90
66184;DHT22;52989;48.796;9.806;2023-03-13T02:25:51;6.90;99.90
66184;DHT22;52989;48.796;9.806;2023-03-13T02:28:22;6.70;99.90
66184;DHT22;52989;48.796;9.806;2023-03-13T02:30:49;6.80;99.90
66184;DHT22;52989;48.796;9.806;2023-03-13T02:33:16;6.70;99.90
66184;DHT22;52989;48.796;9.806;2023-03-13T02:35:43;6.50;99.90
66184;DHT22;52989;48.796;9.806;2023-03-13T02:38:09;6.60;99.90
66184;DHT22;52989;48.796;9.806;2023-03-13T02:40:37;6.70;99.90
66184;DHT22;52989;48.796;9.806;2023-03-13T02:43:06;6.90;99.90
66184;DHT22;52989;48.796;9.806;2023-03-13T02:45:33;6.70;99.90
66184;DHT22;52989;48.796;9.806;2023-03-13T02:47:58;6.80;99.90
66184;DHT22;52989;48.796;9.806;2023-03-13T02:50:23;6.90;99.90
66184;DHT22;52989;48.796;9.806;2023-03-13T02:52:57;6.90;99.90
66184;DHT22;52989;48.796;9.806;2023-03-13T02:55:27;7.00;99.90
66184;DHT22;52989;48.796;9.806;2023-03-13T02:57:54;7.20;99.90
66184;DHT22;52989;48.796;9.806;2023-03-13T03:00:19;7.20;99.90
66184;DHT22;52989;48.796;9.806;2023-03-13T03:02:50;7.10;99.90
66184;DHT22;52989;48.796;9.806;2023-03-13T03:05:15;7.30;99.90
66184;DHT22;52989;48.796;9.806;2023-03-13T03:07:41;7.20;99.90
66184;DHT22;52989;48.796;9.806;2023-03-13T03:10:06;7.20;99.90
66184;DHT22;52989;48.796;9.806;2023-03-13T03:12:32;7.50;99.90
66184;DHT22;52989;48.796;9.806;2023-03-13T03:14:58;7.30;99.90
66184;DHT22;52989;48.796;9.806;2023-03-13T03:17:23;7.10;99.90
66184;DHT22;52989;48.796;9.806;2023-03-13T03:19:49;7.00;99.90
66184;DHT22;52989;48.796;9.806;2023-03-13T03:22:14;7.10;99.90
66184;DHT22;52989;48.796;9.806;2023-03-13T03:24:40;7.20;99.90
66184;DHT22;52989;48.796;9.806;2023-03-13T03:27:05;7.30;99.90
66184;DHT22;52989;48.796;9.806;2023-03-13T03:29:30;7.10;99.90
66184;DHT22;52989;48.796;9.806;2023-03-13T03:31:56;7.00;99.90
66184;DHT22;52989;48.796;9.806;2023-03-13T03:34:21;7.40;99.90
66184;DHT22;52989;48.796;9.806;2023-03-13T03:36:47;7.50;99.90
66184;DHT22;52989;48.796;9.806;2023-03-13T03:39:12;7.50;99.90
66184;DHT22;52989;48.796;9.806;2023-03-13T03:41:38;7.60;99.90
66184;DHT22;52989;48.796;9.806;2023-03-13T03:44:04;7.70;99.90
66184;DHT22;52989;48.796;9.806;2023-03-13T03:46:29;7.70;99.90
66184;DHT22;52989;48.796;9.806;2023-03-13T03:48:55;7.60;99.90
66184;DHT22;52989;48.796;9.806;2023-03-13T03:51:20;7.80;99.90
66184;DHT22;52989;48.796;9.806;2023-03-13T03:53:46;7.70;99.90
66184;DHT22;52989;48.796;9.806;2023-03-13T03:56:12;7.70;99.90
66184;DHT22;52989;48.796;9.806;2023-03-13T03:58:37;7.80;99.90
66184;DHT22;52989;48.796;9.806;2023-03-13T04:01:03;7.90;99.90
66184;DHT22;52989;48.796;9.806;2023-03-13T04:03:29;7.90;99.90
66184;DHT22;52989;48.796;9.806;2023-03-13T04:05:54;7.80;99.90
66184;DHT22;52989;48.796;9.806;2023-03-13T04:08:20;7.70;99.90
66184;DHT22;52989;48.796;9.806;2023-03-13T04:10:46;7.50;99.90
66184;DHT22;52989;48.796;9.806;2023-03-13T04:13:11;7.40;99.90
66184;DHT22;52989;48.796;9.806;2023-03-13T04:15:37;7.30;99.90
66184;DHT22;52989;48.796;9.806;2023-03-13T04:18:03;7.50;99.90
66184;DHT22;52989;48.796;9.806;2023-03-13T04:20:28;7.40;99.90
66184;DHT22;52989;48.796;9.806;2023-03-13T04:22:54;7.50;99.90
66184;DHT22;52989;48.796;9.806;2023-03-13T04:25:19;7.70;99.90
66184;DHT22;52989;48.796;9.806;2023-03-13T04:27:45;7.70;99.90
66184;DHT22;52989;48.796;9.806;2023-03-13T04:30:10;7.90;99.90
66184;DHT22;52989;48.796;9.806;2023-03-13T04:32:36;8.20;99.90
66184;DHT22;52989;48.796;9.806;2023-03-13T04:35:01;7.80;99.90
66184;DHT22;52989;48.796;9.806;2023-03-13T04:37:27;7.70;99.90
66184;DHT22;52989;48.796;9.806;2023-03-13T04:39:52;7.30;99.90
66184;DHT22;52989;48.796;9.806;2023-03-13T04:42:18;7.30;99.90
66184;DHT22;52989;48.796;9.806;2023-03-13T04:44:43;7.40;99.90
66184;DHT22;52989;48.796;9.806;2023-03-13T04:47:09;7.60;99.90
66184;DHT22;52989;48.796;9.806;2023-03-13T04:49:34;7.30;99.90
66184;DHT22;52989;48.796;9.806;2023-03-13T04:52:00;7.10;99.90
66184;DHT22;52989;48.796;9.806;2023-03-13T04:54:26;7.30;99.90
66184;DHT22;52989;48.796;9.806;2023-03-13T04:56:51;7.20;99.90
66184;DHT22;52989;48.796;9.806;2023-03-13T04:59:16;7.30;99.90
66184;DHT22;52989;48.796;9.806;2023-03-13T05:01:42;7.50;99.90
66184;DHT22;52989;48.796;9.806;2023-03-13T05:04:08;7.70;99.90
66184;DHT22;52989;48.796;9.806;2023-03-13T05:06:33;7.90;99.90
66184;DHT22;52989;48.796;9.806;2023-03-13T05:08:59;7.90;99.90
66184;DHT22;52989;48.796;9.806;2023-03-13T05:11:25;7.90;99.90
66184;DHT22;52989;48.796;9.806;2023-03-13T05:13:50;7.90;99.90
66184;DHT22;52989;48.796;9.806;2023-03-13T05:16:15;8.10;99.90
66184;DHT22;52989;48.796;9.806;2023-03-13T05:18:41;8.10;99.90
66184;DHT22;52989;48.796;9.806;2023-03-13T05:21:06;8.20;99.90
66184;DHT22;52989;48.796;9.806;2023-03-13T05:23:32;8.20;99.90
66184;DHT22;52989;48.796;9.806;2023-03-13T05:25:58;8.10;99.90
66184;DHT22;52989;48.796;9.806;2023-03-13T05:28:23;8.00;99.90
66184;DHT22;52989;48.796;9.806;2023-03-13T05:30:49;8.10;99.90
66184;DHT22;52989;48.796;9.806;2023-03-13T05:33:14;8.10;99.90
66184;DHT22;52989;48.796;9.806;2023-03-13T05:35:40;8.20;99.90
66184;DHT22;52989;48.796;9.806;2023-03-13T05:38:06;8.40;99.90
66184;DHT22;52989;48.796;9.806;2023-03-13T05:40:32;8.40;99.90
66184;DHT22;52989;48.796;9.806;2023-03-13T05:42:57;8.40;99.90
66184;DHT22;52989;48.796;9.806;2023-03-13T05:45:23;8.00;99.90
66184;DHT22;52989;48.796;9.806;2023-03-13T05:47:50;7.70;99.90
66184;DHT22;52989;48.796;9.806;2023-03-13T05:50:15;7.70;99.90
66184;DHT22;52989;48.796;9.806;2023-03-13T05:52:41;7.70;99.90
66184;DHT22;52989;48.796;9.806;2023-03-13T05:55:06;7.80;99.90
66184;DHT22;52989;48.796;9.806;2023-03-13T05:57:32;8.10;99.90
66184;DHT22;52989;48.796;9.806;2023-03-13T05:59:57;8.20;99.90
66184;DHT22;52989;48.796;9.806;2023-03-13T06:02:24;8.10;99.90
66184;DHT22;52989;48.796;9.806;2023-03-13T06:04:49;8.00;99.90
66184;DHT22;52989;48.796;9.806;2023-03-13T06:07:14;7.80;99.90
66184;DHT22;52989;48.796;9.806;2023-03-13T06:09:40;7.90;99.90
66184;DHT22;52989;48.796;9.806;2023-03-13T06:12:06;8.70;99.90
66184;DHT22;52989;48.796;9.806;2023-03-13T06:14:32;8.90;99.90
66184;DHT22;52989;48.796;9.806;2023-03-13T06:16:57;9.20;99.90
66184;DHT22;52989;48.796;9.806;2023-03-13T06:19:23;9.30;99.90
66184;DHT22;52989;48.796;9.806;2023-03-13T06:21:48;9.20;99.90
66184;DHT22;52989;48.796;9.806;2023-03-13T06:24:14;8.70;99.90
66184;DHT22;52989;48.796;9.806;2023-03-13T06:26:40;9.30;99.90
66184;DHT22;52989;48.796;9.806;2023-03-13T06:29:05;9.50;99.90
66184;DHT22;52989;48.796;9.806;2023-03-13T06:31:30;9.60;99.90
66184;DHT22;52989;48.796;9.806;2023-03-13T06:33:56;9.50;99.90
66184;DHT22;52989;48.796;9.806;2023-03-13T06:36:22;9.50;99.90
66184;DHT22;52989;48.796;9.806;2023-03-13T06:38:49;9.40;99.90
66184;DHT22;52989;48.796;9.806;2023-03-13T06:41:14;9.50;99.90
66184;DHT22;52989;48.796;9.806;2023-03-13T06:43:40;9.50;99.90
66184;DHT22;52989;48.796;9.806;2023-03-13T06:46:06;9.50;99.90
66184;DHT22;52989;48.796;9.806;2023-03-13T06:48:32;9.40;99.90
66184;DHT22;52989;48.796;9.806;2023-03-13T06:50:57;9.30;99.90
66184;DHT22;52989;48.796;9.806;2023-03-13T06:53:23;9.40;99.90
66184;DHT22;52989;48.796;9.806;2023-03-13T06:55:48;9.60;99.90
66184;DHT22;52989;48.796;9.806;2023-03-13T06:58:14;9.70;99.90
66184;DHT22;52989;48.796;9.806;2023-03-13T07:00:40;9.80;99.90
66184;DHT22;52989;48.796;9.806;2023-03-13T07:03:06;9.80;99.90
66184;DHT22;52989;48.796;9.806;2023-03-13T07:05:32;9.80;99.90
66184;DHT22;52989;48.796;9.806;2023-03-13T07:07:58;9.80;99.90
66184;DHT22;52989;48.796;9.806;2023-03-13T07:10:23;10.00;99.90
66184;DHT22;52989;48.796;9.806;2023-03-13T07:12:49;10.00;99.90
66184;DHT22;52989;48.796;9.806;2023-03-13T07:15:14;10.00;99.90
66184;DHT22;52989;48.796;9.806;2023-03-13T07:17:40;10.10;99.90
66184;DHT22;52989;48.796;9.806;2023-03-13T07:20:05;10.10;99.90
66184;DHT22;52989;48.796;9.806;2023-03-13T07:22:33;10.30;99.90
66184;DHT22;52989;48.796;9.806;2023-03-13T07:24:59;10.20;99.90
66184;DHT22;52989;48.796;9.806;2023-03-13T07:27:24;10.30;99.90
66184;DHT22;52989;48.796;9.806;2023-03-13T07:29:50;10.40;99.90
66184;DHT22;52989;48.796;9.806;2023-03-13T07:32:15;10.50;99.90
66184;DHT22;52989;48.796;9.806;2023-03-13T07:34:41;10.50;99.90
66184;DHT22;52989;48.796;9.806;2023-03-13T07:37:10;10.70;99.90
66184;DHT22;52989;48.796;9.806;2023-03-13T07:39:35;10.90;99.90
66184;DHT22;52989;48.796;9.806;2023-03-13T07:42:01;11.20;99.90
66184;DHT22;52989;48.796;9.806;2023-03-13T07:44:26;11.30;99.90
66184;DHT22;52989;48.796;9.806;2023-03-13T07:46:52;11.50;99.90
66184;DHT22;52989;48.796;9.806;2023-03-13T07:49:17;11.50;99.90
66184;DHT22;52989;48.796;9.806;2023-03-13T07:51:43;11.60;99.90
66184;DHT22;52989;48.796;9.806;2023-03-13T07:54:12;11.70;99.90
66184;DHT22;52989;48.796;9.806;2023-03-13T07:56:37;11.60;99.90
66184;DHT22;52989;48.796;9.806;2023-03-13T07:59:03;11.80;99.90
66184;DHT22;52989;48.796;9.806;2023-03-13T08:01:28;11.80;99.90
66184;DHT22;52989;48.796;9.806;2023-03-13T08:03:54;11.90;99.90
66184;DHT22;52989;48.796;9.806;2023-03-13T08:06:21;11.80;99.90
66184;DHT22;52989;48.796;9.806;2023-03-13T08:08:47;11.80;99.90
66184;DHT22;52989;48.796;9.806;2023-03-13T08:11:17;11.80;99.90
66184;DHT22;52989;48.796;9.806;2023-03-13T08:13:43;11.80;99.90
66184;DHT22;52989;48.796;9.806;2023-03-13T08:18:35;11.70;99.90
66184;DHT22;52989;48.796;9.806;2023-03-13T08:21:04;11.70;99.90
66184;DHT22;52989;48.796;9.806;2023-03-13T08:23:30;11.70;99.90
66184;DHT22;52989;48.796;9.806;2023-03-13T08:26:00;11.70;99.90
66184;DHT22;52989;48.796;9.806;2023-03-13T08:28:25;11.60;99.90
66184;DHT22;52989;48.796;9.806;2023-03-13T08:30:51;11.60;99.90
66184;DHT22;52989;48.796;9.806;2023-03-13T08:33:16;11.70;99.90
66184;DHT22;52989;48.796;9.806;2023-03-13T08:35:42;11.70;99.90
66184;DHT22;52989;48.796;9.806;2023-03-13T08:38:07;11.80;99.90
66184;DHT22;52989;48.796;9.806;2023-03-13T08:40:33;12.00;99.90
66184;DHT22;52989;48.796;9.806;2023-03-13T08:42:58;12.10;99.90
66184;DHT22;52989;48.796;9.806;2023-03-13T08:45:23;12.40;99.90
66184;DHT22;52989;48.796;9.806;2023-03-13T08:47:51;12.40;99.90
66184;DHT22;52989;48.796;9.806;2023-03-13T08:50:16;12.50;99.90
66184;DHT22;52989;48.796;9.806;2023-03-13T08:52:43;12.50;99.90
66184;DHT22;52989;48.796;9.806;2023-03-13T08:55:08;12.50;99.90
66184;DHT22;52989;48.796;9.806;2023-03-13T08:57:34;12.70;99.90
66184;DHT22;52989;48.796;9.806;2023-03-13T08:59:59;12.80;99.90
66184;DHT22;52989;48.796;9.806;2023-03-13T09:02:24;13.00;99.90
66184;DHT22;52989;48.796;9.806;2023-03-13T09:04:50;13.20;99.90
66184;DHT22;52989;48.796;9.806;2023-03-13T09:07:15;13.40;99.90
66184;DHT22;52989;48.796;9.806;2023-03-13T09:09:41;13.60;99.90
66184;DHT22;52989;48.796;9.806;2023-03-13T09:12:06;13.70;99.90
66184;DHT22;52989;48.796;9.806;2023-03-13T09:14:32;13.80;99.90
66184;DHT22;52989;48.796;9.806;2023-03-13T09:16:57;13.90;99.90
66184;DHT22;52989;48.796;9.806;2023-03-13T09:19:23;13.90;99.40
66184;DHT22;52989;48.796;9.806;2023-03-13T09:21:49;14.10;99.90
66184;DHT22;52989;48.796;9.806;2023-03-13T09:24:14;14.00;99.30
66184;DHT22;52989;48.796;9.806;2023-03-13T09:26:40;14.00;99.40
66184;DHT22;52989;48.796;9.806;2023-03-13T09:29:05;14.00;99.60
66184;DHT22;52989;48.796;9.806;2023-03-13T09:31:31;14.20;99.80
66184;DHT22;52989;48.796;9.806;2023-03-13T09:33:57;14.10;99.30
66184;DHT22;52989;48.796;9.806;2023-03-13T09:36:23;14.10;98.60
66184;DHT22;52989;48.796;9.806;2023-03-13T09:38:50;14.10;98.80
66184;DHT22;52989;48.796;9.806;2023-03-13T09:43:46;14.00;99.00
66184;DHT22;52989;48.796;9.806;2023-03-13T09:46:14;13.90;98.90
66184;DHT22;52989;48.796;9.806;2023-03-13T09:48:42;14.10;99.20
66184;DHT22;52989;48.796;9.806;2023-03-13T09:51:17;14.20;99.50
66184;DHT22;52989;48.796;9.806;2023-03-13T09:54:00;14.10;98.50
66184;DHT22;52989;48.796;9.806;2023-03-13T09:57:04;14.10;99.20
66184;DHT22;52989;48.796;9.806;2023-03-13T09:59:26;14.20;98.80
66184;DHT22;52989;48.796;9.806;2023-03-13T10:01:53;14.10;99.00
66184;DHT22;52989;48.796;9.806;2023-03-13T10:06:44;14.10;98.70
66184;DHT22;52989;48.796;9.806;2023-03-13T10:09:18;14.00;98.60
66184;DHT22;52989;48.796;9.806;2023-03-13T10:19:36;14.00;98.80
66184;DHT22;52989;48.796;9.806;2023-03-13T10:22:03;14.00;98.80
66184;DHT22;52989;48.796;9.806;2023-03-13T10:24:39;14.10;98.40
66184;DHT22;52989;48.796;9.806;2023-03-13T10:27:10;14.00;98.40
66184;DHT22;52989;48.796;9.806;2023-03-13T10:29:35;14.10;98.10
66184;DHT22;52989;48.796;9.806;2023-03-13T10:32:03;14.10;97.90
66184;DHT22;52989;48.796;9.806;2023-03-13T10:34:44;14.30;97.60
66184;DHT22;52989;48.796;9.806;2023-03-13T10:37:14;14.50;97.50
66184;DHT22;52989;48.796;9.806;2023-03-13T10:39:40;14.80;96.20
66184;DHT22;52989;48.796;9.806;2023-03-13T10:44:54;14.90;95.70
66184;DHT22;52989;48.796;9.806;2023-03-13T10:47:20;15.10;95.10
66184;DHT22;52989;48.796;9.806;2023-03-13T10:49:47;15.00;95.20
66184;DHT22;52989;48.796;9.806;2023-03-13T10:52:26;15.30;95.30
66184;DHT22;52989;48.796;9.806;2023-03-13T10:54:55;15.40;94.50
66184;DHT22;52989;48.796;9.806;2023-03-13T10:59:49;15.50;94.10
66184;DHT22;52989;48.796;9.806;2023-03-13T11:02:26;15.90;94.70
66184;DHT22;52989;48.796;9.806;2023-03-13T11:04:51;16.20;93.90
66184;DHT22;52989;48.796;9.806;2023-03-13T11:07:24;16.20;92.90
66184;DHT22;52989;48.796;9.806;2023-03-13T11:09:57;16.10;92.90
66184;DHT22;52989;48.796;9.806;2023-03-13T11:12:23;16.20;92.60
66184;DHT22;52989;48.796;9.806;2023-03-13T11:14:55;16.10;93.00
66184;DHT22;52989;48.796;9.806;2023-03-13T11:17:34;16.20;92.40
66184;DHT22;52989;48.796;9.806;2023-03-13T11:20:04;16.20;92.20
66184;DHT22;52989;48.796;9.806;2023-03-13T11:30:48;16.40;90.50
66184;DHT22;52989;48.796;9.806;2023-03-13T11:38:16;16.70;90.10
66184;DHT22;52989;48.796;9.806;2023-03-13T11:43:16;17.00;89.60
66184;DHT22;52989;48.796;9.806;2023-03-13T11:51:05;17.20;87.40
66184;DHT22;52989;48.796;9.806;2023-03-13T11:54:25;17.20;87.10
66184;DHT22;52989;48.796;9.806;2023-03-13T11:56:28;17.20;87.00
66184;DHT22;52989;48.796;9.806;2023-03-13T11:59:02;17.20;85.10
66184;DHT22;52989;48.796;9.806;2023-03-13T12:01:31;17.30;85.30
66184;DHT22;52989;48.796;9.806;2023-03-13T12:04:08;17.40;84.60
66184;DHT22;52989;48.796;9.806;2023-03-13T12:06:40;17.60;85.70
66184;DHT22;52989;48.796;9.806;2023-03-13T12:09:09;17.60;85.00
66184;DHT22;52989;48.796;9.806;2023-03-13T12:16:56;17.80;84.10
66184;DHT22;52989;48.796;9.806;2023-03-13T12:19:26;17.90;82.60
66184;DHT22;52989;48.796;9.806;2023-03-13T12:21:55;17.90;83.40
66184;DHT22;52989;48.796;9.806;2023-03-13T12:24:28;18.00;82.80
66184;DHT22;52989;48.796;9.806;2023-03-13T12:27:01;18.20;82.60
66184;DHT22;52989;48.796;9.806;2023-03-13T12:29:41;18.40;81.90
66184;DHT22;52989;48.796;9.806;2023-03-13T12:45:21;18.70;79.10
66184;DHT22;52989;48.796;9.806;2023-03-13T12:50:23;18.80;79.80
66184;DHT22;52989;48.796;9.806;2023-03-13T12:53:03;18.80;79.50
66184;DHT22;52989;48.796;9.806;2023-03-13T12:55:36;18.80;78.90
66184;DHT22;52989;48.796;9.806;2023-03-13T13:00:34;19.00;78.10
66184;DHT22;52989;48.796;9.806;2023-03-13T13:03:01;19.00;78.80
66184;DHT22;52989;48.796;9.806;2023-03-13T13:05:28;18.90;77.30
66184;DHT22;52989;48.796;9.806;2023-03-13T13:07:54;18.90;78.40
66184;DHT22;52989;48.796;9.806;2023-03-13T13:10:21;18.90;77.70
66184;DHT22;52989;48.796;9.806;2023-03-13T13:15:34;18.90;77.60
66184;DHT22;52989;48.796;9.806;2023-03-13T13:23:35;19.20;76.40
66184;DHT22;52989;48.796;9.806;2023-03-13T13:28:48;19.40;76.40
66184;DHT22;52989;48.796;9.806;2023-03-13T13:33:58;19.50;74.60
66184;DHT22;52989;48.796;9.806;2023-03-13T13:36:27;19.60;74.30
66184;DHT22;52989;48.796;9.806;2023-03-13T13:38:53;19.40;74.50
66184;DHT22;52989;48.796;9.806;2023-03-13T13:43:45;19.40;75.40
66184;DHT22;52989;48.796;9.806;2023-03-13T13:48:39;19.00;75.60
66184;DHT22;52989;48.796;9.806;2023-03-13T13:53:41;19.20;75.40
66184;DHT22;52989;48.796;9.806;2023-03-13T13:58:51;19.30;73.60
66184;DHT22;52989;48.796;9.806;2023-03-13T14:01:19;19.40;74.30
66184;DHT22;52989;48.796;9.806;2023-03-13T14:03:45;19.30;74.40
66184;DHT22;52989;48.796;9.806;2023-03-13T14:06:14;19.30;74.80
66184;DHT22;52989;48.796;9.806;2023-03-13T14:08:41;19.30;74.70
66184;DHT22;52989;48.796;9.806;2023-03-13T14:11:21;19.40;75.20
66184;DHT22;52989;48.796;9.806;2023-03-13T14:16:32;19.20;74.40
66184;DHT22;52989;48.796;9.806;2023-03-13T14:19:01;19.00;74.20
66184;DHT22;52989;48.796;9.806;2023-03-13T14:21:26;19.00;74.20
66184;DHT22;52989;48.796;9.806;2023-03-13T14:23:52;19.20;74.30
66184;DHT22;52989;48.796;9.806;2023-03-13T14:28:45;19.40;73.80
66184;DHT22;52989;48.796;9.806;2023-03-13T14:31:19;19.40;73.50
66184;DHT22;52989;48.796;9.806;2023-03-13T14:33:45;19.30;72.90
66184;DHT22;52989;48.796;9.806;2023-03-13T14:36:10;19.20;72.40
66184;DHT22;52989;48.796;9.806;2023-03-13T14:38:36;19.20;73.80
66184;DHT22;52989;48.796;9.806;2023-03-13T14:41:02;19.20;74.80
66184;DHT22;52989;48.796;9.806;2023-03-13T14:43:32;19.10;72.80
66184;DHT22;52989;48.796;9.806;2023-03-13T14:45:58;19.10;72.70
66184;DHT22;52989;48.796;9.806;2023-03-13T14:48:30;19.20;74.60
66184;DHT22;52989;48.796;9.806;2023-03-13T14:51:01;19.30;73.10
66184;DHT22;52989;48.796;9.806;2023-03-13T14:53:27;19.60;73.00
66184;DHT22;52989;48.796;9.806;2023-03-13T14:56:14;19.60;73.00
66184;DHT22;52989;48.796;9.806;2023-03-13T14:58:45;19.70;72.60
66184;DHT22;52989;48.796;9.806;2023-03-13T15:01:26;19.60;73.00
66184;DHT22;52989;48.796;9.806;2023-03-13T15:03:52;19.50;73.40
66184;DHT22;52989;48.796;9.806;2023-03-13T15:06:18;19.40;73.50
66184;DHT22;52989;48.796;9.806;2023-03-13T15:08:45;19.50;74.20
66184;DHT22;52989;48.796;9.806;2023-03-13T15:13:42;19.10;73.70
66184;DHT22;52989;48.796;9.806;2023-03-13T15:16:18;19.00;73.90
66184;DHT22;52989;48.796;9.806;2023-03-13T15:18:45;18.90;74.30
66184;DHT22;52989;48.796;9.806;2023-03-13T15:23:41;18.60;74.50
66184;DHT22;52989;48.796;9.806;2023-03-13T15:26:07;18.60;74.20
66184;DHT22;52989;48.796;9.806;2023-03-13T15:28:32;18.60;75.00
66184;DHT22;52989;48.796;9.806;2023-03-13T15:30:58;18.40;75.10
66184;DHT22;52989;48.796;9.806;2023-03-13T15:33:25;18.30;75.20
66184;DHT22;52989;48.796;9.806;2023-03-13T15:35:52;18.30;75.60
66184;DHT22;52989;48.796;9.806;2023-03-13T15:38:18;18.30;76.20
66184;DHT22;52989;48.796;9.806;2023-03-13T15:40:44;18.20;76.20
66184;DHT22;52989;48.796;9.806;2023-03-13T15:43:10;18.20;76.40
66184;DHT22;52989;48.796;9.806;2023-03-13T15:45:36;18.20;76.20
66184;DHT22;52989;48.796;9.806;2023-03-13T15:48:08;18.10;76.20
66184;DHT22;52989;48.796;9.806;2023-03-13T15:50:36;18.30;76.50
66184;DHT22;52989;48.796;9.806;2023-03-13T15:53:01;18.50;76.20
66184;DHT22;52989;48.796;9.806;2023-03-13T15:55:27;18.50;75.40
66184;DHT22;52989;48.796;9.806;2023-03-13T15:57:53;18.60;76.10
66184;DHT22;52989;48.796;9.806;2023-03-13T16:02:44;18.20;76.20
66184;DHT22;52989;48.796;9.806;2023-03-13T16:05:10;18.00;76.70
66184;DHT22;52989;48.796;9.806;2023-03-13T16:07:35;17.90;77.40
66184;DHT22;52989;48.796;9.806;2023-03-13T16:10:01;18.00;77.50
66184;DHT22;52989;48.796;9.806;2023-03-13T16:12:26;17.90;77.00
66184;DHT22;52989;48.796;9.806;2023-03-13T16:14:52;17.80;77.10
66184;DHT22;52989;48.796;9.806;2023-03-13T16:17:18;17.80;77.40
66184;DHT22;52989;48.796;9.806;2023-03-13T16:19:44;17.80;77.10
66184;DHT22;52989;48.796;9.806;2023-03-13T16:22:10;17.70;77.10
66184;DHT22;52989;48.796;9.806;2023-03-13T16:24:35;17.60;77.10
66184;DHT22;52989;48.796;9.806;2023-03-13T16:27:01;17.50;77.60
66184;DHT22;52989;48.796;9.806;2023-03-13T16:29:26;17.40;78.10
66184;DHT22;52989;48.796;9.806;2023-03-13T16:31:52;17.30;78.00
66184;DHT22;52989;48.796;9.806;2023-03-13T16:34:17;17.30;78.20
66184;DHT22;52989;48.796;9.806;2023-03-13T16:36:43;17.30;78.40
66184;DHT22;52989;48.796;9.806;2023-03-13T16:39:12;17.40;78.00
66184;DHT22;52989;48.796;9.806;2023-03-13T16:41:38;17.30;78.40
66184;DHT22;52989;48.796;9.806;2023-03-13T16:44:04;17.10;78.20
66184;DHT22;52989;48.796;9.806;2023-03-13T16:46:39;17.00;78.50
66184;DHT22;52989;48.796;9.806;2023-03-13T16:49:05;16.90;78.80
66184;DHT22;52989;48.796;9.806;2023-03-13T16:51:31;16.90;78.40
66184;DHT22;52989;48.796;9.806;2023-03-13T16:53:58;16.80;79.00
66184;DHT22;52989;48.796;9.806;2023-03-13T16:56:25;16.70;79.20
66184;DHT22;52989;48.796;9.806;2023-03-13T16:58:52;16.50;79.50
66184;DHT22;52989;48.796;9.806;2023-03-13T17:01:18;16.50;79.60
66184;DHT22;52989;48.796;9.806;2023-03-13T17:03:43;16.40;80.10
66184;DHT22;52989;48.796;9.806;2023-03-13T17:06:12;16.40;80.00
66184;DHT22;52989;48.796;9.806;2023-03-13T17:08:38;16.30;80.10
66184;DHT22;52989;48.796;9.806;2023-03-13T17:11:03;16.20;80.40
66184;DHT22;52989;48.796;9.806;2023-03-13T17:13:29;16.20;80.30
66184;DHT22;52989;48.796;9.806;2023-03-13T17:15:54;16.20;80.70
66184;DHT22;52989;48.796;9.806;2023-03-13T17:18:20;16.20;80.70
66184;DHT22;52989;48.796;9.806;2023-03-13T17:20:45;16.20;80.40
66184;DHT22;52989;48.796;9.806;2023-03-13T17:23:12;16.20;80.30